Time;durP1;ratioP1;P1;durP2;ratioP2;P2;SDS_P1;SDS_P2;PMS_P1;PMS_P2;Temp;Humidity;BMP_temperature;BMP_pressure;BME280_temperature;BME280_humidity;BME280_pressure;Samples;Min_cycle;Max_cycle;Signal;HPM_P1;HPM_P2
2020/12/18 00:01:48;;;;;;;65.60;32.17;;;;;;;3.60;87.39;100231.72;1765992;79;21071;-69
2020/12/18 00:04:16;;;;;;;60.43;31.73;;;;;;;3.61;87.25;100235.66;1771185;79;21058;-66
2020/12/18 00:06:43;;;;;;;62.80;31.80;;;;;;;3.61;87.17;100230.55;1775238;79;21047;-65
2020/12/18 00:09:11;;;;;;;69.80;32.73;;;;;;;3.63;87.22;100234.45;1767224;80;21559;-70
2020/12/18 00:11:39;;;;;;;67.22;35.13;;;;;;;3.61;87.17;100230.55;1772428;80;21624;-71
2020/12/18 00:14:07;;;;;;;75.00;34.90;;;;;;;3.63;87.13;100234.05;1741201;81;21521;-67
2020/12/18 00:16:34;;;;;;;70.45;33.48;;;;;;;3.64;87.07;100228.17;1705358;83;21182;-68
2020/12/18 00:19:02;;;;;;;78.02;38.92;;;;;;;3.64;86.99;100227.30;1782010;79;21027;-68
2020/12/18 00:21:30;;;;;;;83.47;40.75;;;;;;;3.62;86.87;100229.75;1752295;81;21008;-64
2020/12/18 00:23:57;;;;;;;82.05;38.48;;;;;;;3.59;86.89;100228.30;1791214;78;21083;-69
2020/12/18 00:26:35;;;;;;;80.72;38.90;;;;;;;3.58;86.77;100225.23;1788950;79;21504;-70
2020/12/18 00:29:03;;;;;;;77.82;35.92;;;;;;;3.50;86.83;100226.47;1782697;79;21023;-67
2020/12/18 00:31:31;;;;;;;76.17;36.65;;;;;;;3.47;87.13;100222.46;1772515;79;21066;-67
2020/12/18 00:33:59;;;;;;;69.42;33.50;;;;;;;3.45;87.10;100227.47;1764460;79;21189;-68
2020/12/18 00:36:26;;;;;;;85.97;38.23;;;;;;;3.45;87.40;100225.31;1772710;79;21034;-73
2020/12/18 00:38:54;;;;;;;94.05;38.67;;;;;;;3.45;87.28;100222.76;1778963;79;21016;-66
2020/12/18 00:41:22;;;;;;;83.70;39.40;;;;;;;3.46;87.38;100223.23;1768024;79;21077;-69
2020/12/18 00:43:49;;;;;;;73.92;36.20;;;;;;;3.46;87.38;100219.41;1750895;81;21017;-68
2020/12/18 00:46:17;;;;;;;66.72;35.78;;;;;;;3.46;87.45;100220.68;1780580;79;21036;-66
2020/12/18 00:48:45;;;;;;;78.83;38.83;;;;;;;3.45;87.28;100221.08;1784094;79;21082;-70
2020/12/18 00:51:17;;;;;;;84.40;39.67;;;;;;;3.42;87.40;100220.91;1784449;79;21057;-65
2020/12/18 00:53:45;;;;;;;83.45;38.02;;;;;;;3.41;87.33;100220.80;1778050;78;21140;-69
2020/12/18 00:56:14;;;;;;;77.70;36.10;;;;;;;3.38;87.40;100210.42;1778291;80;20990;-68
2020/12/18 00:58:44;;;;;;;67.82;34.38;;;;;;;3.38;87.62;100212.97;1784847;79;21047;-69
2020/12/18 01:01:12;;;;;;;73.70;34.45;;;;;;;3.35;87.62;100202.59;1785245;79;21060;-72
2020/12/18 01:03:40;;;;;;;68.12;32.17;;;;;;;3.35;87.71;100209.84;1766051;78;21144;-67
2020/12/18 01:06:13;;;;;;;58.87;28.60;;;;;;;3.39;87.79;100201.59;1769511;80;21164;-67
2020/12/18 01:08:45;;;;;;;60.28;29.55;;;;;;;3.39;87.54;100202.87;1725975;82;21224;-62
2020/12/18 01:11:13;;;;;;;60.00;29.50;;;;;;;3.38;87.71;100197.66;1738500;81;21502;-67
2020/12/18 01:13:41;;;;;;;57.25;28.60;;;;;;;3.36;87.57;100197.96;1771846;78;21176;-69
2020/12/18 01:16:12;;;;;;;64.45;30.12;;;;;;;3.33;87.53;100204.16;1771395;78;21122;-71
2020/12/18 01:18:41;;;;;;;58.30;27.77;;;;;;;3.32;87.63;100203.69;1774263;78;21508;-69
2020/12/18 01:21:12;;;;;;;54.33;28.27;;;;;;;3.31;87.66;100200.63;1808147;78;21473;-71
2020/12/18 01:23:40;;;;;;;65.22;28.07;;;;;;;3.31;87.65;100192.61;1771710;80;21281;-74
2020/12/18 01:26:10;;;;;;;55.23;27.82;;;;;;;3.29;87.51;100192.91;1795954;78;21037;-67
2020/12/18 01:28:38;;;;;;;55.90;27.65;;;;;;;3.26;87.65;100196.16;1788809;78;21101;-64
2020/12/18 01:31:06;;;;;;;55.67;25.82;;;;;;;3.29;87.76;100190.36;1809303;78;21461;-67
2020/12/18 01:33:35;;;;;;;52.90;27.30;;;;;;;3.29;87.71;100192.03;1774687;78;21063;-67
2020/12/18 01:36:05;;;;;;;51.60;26.17;;;;;;;3.25;87.53;100189.27;1798530;78;21093;-68
2020/12/18 01:38:35;;;;;;;50.60;26.95;;;;;;;3.21;87.62;100187.34;1776545;78;21187;-66
2020/12/18 01:41:05;;;;;;;55.43;26.93;;;;;;;3.19;87.87;100187.65;1735491;81;21134;-66
2020/12/18 01:43:33;;;;;;;50.95;27.45;;;;;;;3.23;87.71;100187.05;1696588;83;21047;-66
2020/12/18 01:46:12;;;;;;;53.55;27.45;;;;;;;3.23;87.59;100183.59;1722475;82;21053;-70
2020/12/18 01:48:43;;;;;;;50.03;26.02;;;;;;;3.25;87.44;100188.00;1774381;80;21058;-68
2020/12/18 01:51:13;;;;;;;45.10;23.73;;;;;;;3.22;87.29;100185.27;1770174;79;21054;-73
2020/12/18 01:53:44;;;;;;;43.17;23.95;;;;;;;3.17;87.17;100187.94;1759927;80;21247;-69
2020/12/18 01:56:18;;;;;;;46.13;26.23;;;;;;;3.11;87.18;100192.69;1727732;82;21090;-69
2020/12/18 01:58:51;;;;;;;54.58;25.88;;;;;;;3.08;87.33;100189.96;1777380;80;21073;-69
2020/12/18 02:01:20;;;;;;;52.48;26.87;;;;;;;3.06;87.36;100189.38;1752311;81;21057;-67
2020/12/18 02:03:53;;;;;;;56.33;28.77;;;;;;;3.07;87.44;100198.38;1749057;80;21642;-72
2020/12/18 02:06:28;;;;;;;53.20;27.75;;;;;;;3.05;87.32;100184.65;1753634;80;21606;-67
2020/12/18 02:08:57;;;;;;;57.23;29.18;;;;;;;3.02;87.40;100189.57;1769253;80;21483;-70
2020/12/18 02:11:28;;;;;;;52.75;26.82;;;;;;;2.96;87.50;100187.94;1739021;81;21165;-71
2020/12/18 02:13:58;;;;;;;49.58;28.02;;;;;;;2.93;87.58;100186.08;1700778;82;21040;-68
2020/12/18 02:16:27;;;;;;;61.37;29.92;;;;;;;2.92;87.75;100183.02;1760341;80;21010;-68
2020/12/18 02:18:57;;;;;;;55.83;27.20;;;;;;;2.96;87.69;100181.56;1775115;80;21595;-71
2020/12/18 02:21:27;;;;;;;60.33;30.72;;;;;;;2.92;87.78;100179.60;1771994;80;21069;-70
2020/12/18 02:23:55;;;;;;;61.18;30.52;;;;;;;2.92;87.74;100184.70;1770343;80;21042;-66
2020/12/18 02:26:23;;;;;;;58.78;31.10;;;;;;;2.89;87.87;100179.02;1776724;79;21595;-69
2020/12/18 02:28:51;;;;;;;54.50;29.48;;;;;;;2.88;87.85;100177.67;1774414;80;21211;-69
2020/12/18 02:31:23;;;;;;;64.90;32.58;;;;;;;2.83;87.91;100175.71;1745632;80;21034;-67
2020/12/18 02:33:52;;;;;;;58.00;31.30;;;;;;;2.79;88.14;100175.42;1749141;79;21483;-69
2020/12/18 02:36:28;;;;;;;59.77;29.27;;;;;;;2.78;88.43;100172.40;1760786;79;21207;-66
2020/12/18 02:39:00;;;;;;;47.62;25.43;;;;;;;2.80;88.47;100175.94;1755348;80;21176;-69
2020/12/18 02:41:29;;;;;;;53.35;27.80;;;;;;;2.81;88.06;100176.00;1773773;79;21082;-69
2020/12/18 02:44:08;;;;;;;43.05;22.95;;;;;;;2.74;87.98;100172.98;1750773;80;21216;-66
2020/12/18 02:46:37;;;;;;;40.58;19.45;;;;;;;2.61;88.18;100175.17;1761287;80;21499;-65
2020/12/18 02:49:05;;;;;;;37.23;19.37;;;;;;;2.55;88.24;100173.53;1773673;80;21433;-66
2020/12/18 02:51:35;;;;;;;43.48;21.42;;;;;;;2.50;88.41;100173.64;1762688;80;21017;-70
2020/12/18 02:54:21;;;;;;;39.20;23.02;;;;;;;2.56;88.55;100170.19;1804376;77;28155;-68
2020/12/18 02:56:53;;;;;;;34.85;20.60;;;;;;;2.59;88.52;100172.52;1724862;80;21118;-67
2020/12/18 02:59:22;;;;;;;38.65;21.37;;;;;;;2.60;88.23;100174.30;1774809;80;21655;-67
2020/12/18 03:01:52;;;;;;;42.33;20.55;;;;;;;2.50;88.47;100178.73;1782576;80;21151;-69
2020/12/18 03:04:20;;;;;;;39.42;20.57;;;;;;;2.36;88.81;100182.55;1720949;82;21221;-66
2020/12/18 03:06:50;;;;;;;34.35;19.40;;;;;;;2.34;89.02;100175.59;1729248;81;21593;-70
2020/12/18 03:09:17;;;;;;;38.35;20.65;;;;;;;2.34;89.10;100180.33;1721992;82;21581;-72
2020/12/18 03:11:46;;;;;;;34.45;18.73;;;;;;;2.39;89.19;100183.13;1736376;81;21179;-67
2020/12/18 03:14:14;;;;;;;38.28;21.25;;;;;;;2.43;89.02;100181.67;1722873;82;21163;-69
2020/12/18 03:16:44;;;;;;;40.55;20.55;;;;;;;2.39;89.18;100173.85;1729722;82;21744;-64
2020/12/18 03:19:17;;;;;;;35.10;19.80;;;;;;;2.40;89.20;100176.00;1723802;81;21350;-67
2020/12/18 03:21:46;;;;;;;34.80;19.42;;;;;;;2.38;89.26;100175.89;1725376;82;21209;-66
2020/12/18 03:24:16;;;;;;;34.40;18.32;;;;;;;2.40;89.10;100174.72;1726571;81;21466;-70
2020/12/18 03:26:48;;;;;;;29.90;16.62;;;;;;;2.45;89.14;100182.66;1712541;83;21174;-67
2020/12/18 03:29:17;;;;;;;31.55;15.80;;;;;;;2.48;88.93;100185.39;1730684;82;21284;-71
2020/12/18 03:31:47;;;;;;;24.40;14.23;;;;;;;2.49;88.73;100175.28;1742878;81;21165;-67
2020/12/18 03:34:15;;;;;;;26.42;14.00;;;;;;;2.49;88.40;100179.50;1745067;81;21596;-66
2020/12/18 03:36:45;;;;;;;26.27;14.25;;;;;;;2.39;88.21;100181.49;1752099;81;21549;-69
2020/12/18 03:39:13;;;;;;;24.98;13.45;;;;;;;2.17;88.58;100177.09;1741087;81;21170;-72
2020/12/18 03:41:43;;;;;;;22.80;12.80;;;;;;;2.14;89.16;100176.91;1734371;81;21750;-68
2020/12/18 03:44:12;;;;;;;24.25;13.30;;;;;;;2.19;89.05;100176.80;1724296;81;21123;-68
2020/12/18 03:46:40;;;;;;;24.23;13.30;;;;;;;2.17;89.18;100187.28;1737324;81;21312;-69
2020/12/18 03:49:16;;;;;;;22.87;12.73;;;;;;;2.15;89.06;100173.16;1725443;83;21147;-62
2020/12/18 03:51:45;;;;;;;22.15;13.35;;;;;;;2.16;89.07;100184.22;1720371;83;21153;-70
2020/12/18 03:54:15;;;;;;;26.23;12.78;;;;;;;2.11;89.03;100175.41;1710059;81;21623;-68
2020/12/18 03:56:45;;;;;;;23.92;13.18;;;;;;;2.10;89.17;100176.20;1699231;83;21722;-68
2020/12/18 03:59:17;;;;;;;23.52;13.90;;;;;;;2.11;89.25;100176.69;1760490;80;21172;-70
2020/12/18 04:01:47;;;;;;;25.00;13.93;;;;;;;2.08;89.29;100169.73;1710698;80;21215;-63
2020/12/18 04:04:15;;;;;;;22.25;12.85;;;;;;;2.02;89.45;100167.20;1751636;80;21169;-74
2020/12/18 04:06:43;;;;;;;24.45;12.88;;;;;;;1.94;89.44;100171.41;1748333;80;21649;-69
2020/12/18 04:09:11;;;;;;;19.23;10.82;;;;;;;1.87;89.63;100169.23;1745858;80;21136;-66
2020/12/18 04:11:41;;;;;;;22.95;12.85;;;;;;;1.70;89.67;100169.80;1753418;80;21149;-70
2020/12/18 04:14:17;;;;;;;20.15;11.53;;;;;;;1.59;90.25;100169.50;1756767;80;21165;-68
2020/12/18 04:16:50;;;;;;;25.72;13.75;;;;;;;1.47;90.57;100162.80;1758036;80;21113;-68
2020/12/18 04:19:20;;;;;;;24.77;13.85;;;;;;;1.46;91.13;100167.81;1756874;80;21227;-69
2020/12/18 04:21:47;;;;;;;24.15;13.28;;;;;;;1.42;91.28;100159.07;1763436;80;21093;-72
2020/12/18 04:24:17;;;;;;;26.95;13.10;;;;;;;1.44;91.44;100163.88;1743119;80;21283;-65
2020/12/18 04:26:47;;;;;;;23.45;12.63;;;;;;;1.39;91.58;100158.00;1736826;80;21291;-69
2020/12/18 04:29:16;;;;;;;23.22;12.58;;;;;;;1.42;91.91;100167.97;1758897;80;21132;-70
2020/12/18 04:31:46;;;;;;;26.70;14.47;;;;;;;1.46;91.87;100166.14;1763829;80;21323;-69
2020/12/18 04:34:14;;;;;;;26.02;15.08;;;;;;;1.51;92.03;100162.23;1726508;81;21155;-66
2020/12/18 04:36:48;;;;;;;27.30;13.78;;;;;;;1.59;91.97;100164.41;1750824;80;21133;-66
2020/12/18 04:39:19;;;;;;;24.60;13.13;;;;;;;1.64;92.02;100167.74;1761067;80;21664;-65
2020/12/18 04:41:48;;;;;;;22.73;12.03;;;;;;;1.68;91.62;100170.08;1755468;80;21162;-72
2020/12/18 04:44:17;;;;;;;24.37;12.63;;;;;;;1.71;91.59;100169.04;1753801;80;21287;-69
2020/12/18 04:46:51;;;;;;;24.43;14.58;;;;;;;1.76;91.59;100171.49;1747432;80;21152;-71
2020/12/18 04:49:19;;;;;;;26.23;13.88;;;;;;;1.76;91.74;100174.03;1754035;80;21148;-70
2020/12/18 04:51:53;;;;;;;24.25;13.88;;;;;;;1.80;91.63;100174.70;1728445;82;21582;-68
2020/12/18 04:54:28;;;;;;;22.70;12.85;;;;;;;1.85;91.43;100175.89;1778831;79;21129;-66
2020/12/18 04:56:59;;;;;;;28.77;13.53;;;;;;;1.77;90.85;100174.91;1787866;80;21118;-67
2020/12/18 04:59:32;;;;;;;26.60;13.38;;;;;;;1.67;90.71;100176.84;1708786;82;21174;-72
2020/12/18 05:02:15;;;;;;;28.40;14.78;;;;;;;1.64;90.92;100175.77;1730962;82;21320;-71
2020/12/18 05:04:45;;;;;;;25.43;14.23;;;;;;;1.70;91.11;100185.06;1726172;83;21146;-73
2020/12/18 05:07:17;;;;;;;24.35;14.40;;;;;;;1.77;90.87;100178.33;1710362;83;21186;-74
2020/12/18 05:09:53;;;;;;;28.55;15.55;;;;;;;1.78;90.69;100182.66;1725590;83;21144;-69
2020/12/18 05:12:22;;;;;;;24.92;15.43;;;;;;;1.83;90.81;100180.02;1711719;83;21151;-68
2020/12/18 05:14:50;;;;;;;30.48;16.48;;;;;;;1.90;90.66;100185.97;1720689;83;21170;-71
2020/12/18 05:17:20;;;;;;;36.15;17.62;;;;;;;2.02;90.56;100179.93;1729593;82;21969;-66
2020/12/18 05:19:52;;;;;;;32.35;17.40;;;;;;;2.06;90.17;100187.88;1726516;83;21187;-67
2020/12/18 05:22:38;;;;;;;30.52;16.35;;;;;;;2.12;90.14;100189.92;1726686;83;21232;-70
2020/12/18 05:25:10;;;;;;;32.15;17.32;;;;;;;2.13;89.60;100187.45;1722425;82;21175;-64
2020/12/18 05:27:41;;;;;;;36.10;18.85;;;;;;;2.10;89.67;100183.84;1716929;83;21215;-71
2020/12/18 05:30:10;;;;;;;31.20;18.40;;;;;;;2.13;89.70;100189.13;1699859;83;21175;-65
2020/12/18 05:32:38;;;;;;;34.08;18.23;;;;;;;2.17;89.47;100188.55;1722082;83;21142;-66
2020/12/18 05:35:16;;;;;;;34.35;18.75;;;;;;;2.19;89.35;100186.99;1728736;81;21126;-65
2020/12/18 05:37:47;;;;;;;35.23;18.65;;;;;;;2.24;89.14;100189.80;1725190;83;21138;-69
2020/12/18 05:40:17;;;;;;;39.85;20.85;;;;;;;2.25;88.90;100197.55;1707824;83;21187;-64
2020/12/18 05:42:49;;;;;;;39.25;20.65;;;;;;;2.27;88.84;100194.72;1696820;83;21305;-70
2020/12/18 05:45:20;;;;;;;33.85;18.80;;;;;;;2.28;88.75;100201.56;1781620;80;21838;-70
2020/12/18 05:48:03;;;;;;;34.15;19.55;;;;;;;2.29;88.65;100200.80;1779712;80;21147;-68
2020/12/18 05:50:37;;;;;;;33.95;18.87;;;;;;;2.30;88.47;100202.55;1774473;80;21156;-68
2020/12/18 05:53:08;;;;;;;40.50;19.23;;;;;;;2.27;88.15;100198.54;1786969;80;21277;-66
2020/12/18 05:55:41;;;;;;;35.68;18.17;;;;;;;2.23;88.53;100204.21;1769384;80;21149;-68
2020/12/18 05:58:22;;;;;;;39.05;18.32;;;;;;;2.26;88.45;100203.52;1761091;80;21171;-70
2020/12/18 06:00:52;;;;;;;31.65;16.67;;;;;;;2.26;88.14;100213.31;1747964;80;21203;-73
2020/12/18 06:03:39;;;;;;;32.03;16.32;;;;;;;2.12;87.94;100206.48;1782947;80;21279;-73
2020/12/18 06:06:12;;;;;;;35.45;17.48;;;;;;;2.01;88.40;100208.70;1780605;80;21179;-65
2020/12/18 06:08:44;;;;;;;29.45;14.60;;;;;;;1.97;88.52;100211.84;1784549;80;21130;-70
2020/12/18 06:11:14;;;;;;;33.88;16.93;;;;;;;1.89;88.79;100212.63;1787958;80;21288;-72
2020/12/18 06:13:53;;;;;;;34.55;17.77;;;;;;;1.87;88.93;100215.45;1733834;82;21586;-73
2020/12/18 06:16:37;;;;;;;35.33;17.57;;;;;;;1.93;89.07;100215.47;1774665;80;21562;-68
2020/12/18 06:19:08;;;;;;;34.50;18.87;;;;;;;1.99;89.00;100211.17;1784425;80;21128;-68
2020/12/18 06:21:38;;;;;;;31.97;17.55;;;;;;;2.08;88.89;100213.41;1695772;84;21191;-69
2020/12/18 06:24:09;;;;;;;39.73;20.50;;;;;;;2.06;88.62;100217.16;1768670;81;21604;-64
2020/12/18 06:26:39;;;;;;;42.27;22.07;;;;;;;2.08;88.83;100218.50;1763479;81;21170;-63
2020/12/18 06:29:18;;;;;;;41.55;21.45;;;;;;;2.14;88.60;100217.64;1689974;85;21388;-67
2020/12/18 06:32:27;;;;;;;45.43;22.30;;;;;;;2.21;88.42;100220.17;1787622;79;21111;-68
2020/12/18 06:35:36;;;;;;;48.85;26.55;;;;;;;2.25;88.24;100224.70;1784731;80;21156;-69
2020/12/18 06:38:24;;;;;;;48.10;24.85;;;;;;;2.27;88.09;100230.37;1786282;80;21151;-67
2020/12/18 06:41:25;;;;;;;55.12;27.90;;;;;;;2.33;88.14;100224.39;1784347;79;21566;-65
2020/12/18 06:44:38;;;;;;;57.45;28.07;;;;;;;2.41;88.04;100230.37;1783957;79;21700;-68
2020/12/18 06:47:19;;;;;;;54.88;27.82;;;;;;;2.45;87.80;100233.22;1746744;80;21269;-65
2020/12/18 06:50:09;;;;;;;52.55;28.35;;;;;;;2.48;87.65;100229.58;1783413;80;21139;-64
2020/12/18 06:52:53;;;;;;;51.92;28.67;;;;;;;2.47;87.52;100220.19;1761980;80;21688;-67
2020/12/18 06:55:30;;;;;;;54.83;28.77;;;;;;;2.49;87.45;100224.09;1780155;79;21139;-63
2020/12/18 06:58:14;;;;;;;54.65;31.52;;;;;;;2.52;87.34;100217.91;1693501;84;21174;-66
2020/12/18 07:00:56;;;;;;;52.13;28.70;;;;;;;2.55;87.22;100219.40;1779033;79;21115;-68
2020/12/18 07:03:49;;;;;;;46.63;26.55;;;;;;;2.60;87.05;100226.94;1779198;80;21245;-67
2020/12/18 07:06:31;;;;;;;51.58;29.27;;;;;;;2.63;86.88;100223.30;1778908;80;21159;-65
2020/12/18 07:09:19;;;;;;;51.28;26.02;;;;;;;2.61;86.57;100223.19;1779597;81;21564;-66
2020/12/18 07:11:49;;;;;;;43.63;24.25;;;;;;;2.49;86.42;100222.81;1747893;81;21224;-65
2020/12/18 07:14:16;;;;;;;51.42;26.57;;;;;;;2.24;86.87;100222.55;1747823;82;21150;-63
2020/12/18 07:16:55;;;;;;;49.15;28.23;;;;;;;2.19;87.37;100217.55;1717697;82;21138;-68
2020/12/18 07:19:23;;;;;;;42.15;24.57;;;;;;;2.17;87.56;100221.66;1736705;81;21607;-66
2020/12/18 07:22:05;;;;;;;41.92;24.75;;;;;;;2.08;87.54;100215.56;1688774;83;21169;-70
2020/12/18 07:24:33;;;;;;;47.95;25.27;;;;;;;2.04;87.79;100220.38;1700558;83;21299;-68
2020/12/18 07:27:01;;;;;;;48.78;25.30;;;;;;;2.10;87.83;100223.31;1700420;83;21300;-67
2020/12/18 07:29:31;;;;;;;46.60;25.32;;;;;;;2.16;87.74;100222.42;1736111;82;21312;-69
2020/12/18 07:31:58;;;;;;;50.50;26.95;;;;;;;2.16;87.79;100230.06;1716874;82;21292;-62
2020/12/18 07:34:26;;;;;;;52.83;27.73;;;;;;;2.15;87.56;100220.27;1747587;81;21114;-68
2020/12/18 07:36:54;;;;;;;50.10;28.32;;;;;;;2.10;87.52;100224.59;1747553;81;21103;-70
2020/12/18 07:39:22;;;;;;;51.05;28.40;;;;;;;2.12;87.59;100224.30;1716842;82;21142;-71
2020/12/18 07:41:52;;;;;;;54.45;29.10;;;;;;;2.07;87.42;100218.03;1747929;81;21150;-66
2020/12/18 07:44:19;;;;;;;48.95;28.15;;;;;;;2.05;87.61;100218.31;1746272;81;21106;-68
2020/12/18 07:46:48;;;;;;;47.03;27.65;;;;;;;2.10;87.59;100220.77;1746881;80;21300;-68
2020/12/18 07:49:15;;;;;;;54.03;27.60;;;;;;;2.14;87.39;100229.11;1746348;81;21154;-69
2020/12/18 07:51:43;;;;;;;55.20;30.65;;;;;;;2.16;87.36;100227.52;1746103;82;21321;-72
2020/12/18 07:54:20;;;;;;;50.03;26.35;;;;;;;2.15;87.09;100226.64;1676943;84;21194;-71
2020/12/18 07:56:47;;;;;;;45.35;26.45;;;;;;;2.13;87.02;100224.38;1718163;83;21150;-69
2020/12/18 07:59:15;;;;;;;45.20;25.25;;;;;;;2.09;87.01;100224.11;1726553;80;21579;-66
2020/12/18 08:01:43;;;;;;;47.98;27.40;;;;;;;2.09;87.15;100226.66;1743806;80;21147;-66
2020/12/18 08:04:13;;;;;;;50.63;27.87;;;;;;;2.11;87.04;100226.34;1746320;82;21167;-65
2020/12/18 08:06:43;;;;;;;46.27;24.73;;;;;;;2.14;86.94;100229.98;1746748;81;21735;-66
2020/12/18 08:09:16;;;;;;;43.80;23.45;;;;;;;2.12;86.72;100231.94;1746139;82;21329;-65
2020/12/18 08:11:50;;;;;;;47.60;23.70;;;;;;;2.03;86.65;100225.84;1743860;81;21182;-68
2020/12/18 08:14:16;;;;;;;38.83;21.97;;;;;;;2.00;86.85;100229.86;1743983;81;21108;-67
2020/12/18 08:16:44;;;;;;;43.05;20.75;;;;;;;1.97;86.87;100233.48;1715554;82;21171;-65
2020/12/18 08:19:13;;;;;;;36.33;19.92;;;;;;;1.98;86.86;100227.60;1743079;81;21293;-66
2020/12/18 08:21:46;;;;;;;38.83;21.00;;;;;;;1.99;86.75;100235.35;1739140;81;21147;-72
2020/12/18 08:24:36;;;;;;;33.25;17.42;;;;;;;1.99;86.60;100230.66;1737201;81;21189;-67
2020/12/18 08:27:15;;;;;;;38.13;18.23;;;;;;;1.95;86.68;100227.89;1716340;82;21639;-69
2020/12/18 08:29:44;;;;;;;31.90;16.57;;;;;;;1.78;86.73;100231.02;1716267;82;21303;-67
2020/12/18 08:32:20;;;;;;;30.55;15.93;;;;;;;1.79;86.91;100219.16;1715871;82;21189;-64
2020/12/18 08:34:50;;;;;;;33.30;16.70;;;;;;;1.82;86.82;100229.14;1729394;81;21133;-73
2020/12/18 08:37:22;;;;;;;32.25;16.65;;;;;;;1.87;86.72;100226.51;1745254;81;21587;-68
2020/12/18 08:39:50;;;;;;;;;;;;;;;1.91;86.78;100223.39;1747816;81;21287;-67
2020/12/18 08:42:18;;;;;;;38.83;19.55;;;;;;;1.99;86.67;100225.56;1745765;81;20167;-64
2020/12/18 08:44:46;;;;;;;41.73;23.15;;;;;;;2.07;86.52;100214.20;1737067;81;21157;-72
2020/12/18 08:47:27;;;;;;;37.78;21.17;;;;;;;2.14;86.47;100217.64;1739348;81;21161;-67
2020/12/18 08:49:57;;;;;;;39.88;21.73;;;;;;;2.19;86.26;100220.09;1746216;81;21564;-65
2020/12/18 08:52:29;;;;;;;46.25;25.55;;;;;;;2.24;86.26;100222.55;1729956;81;21300;-69
2020/12/18 08:55:03;;;;;;;38.85;20.57;;;;;;;2.23;86.30;100218.22;1725586;82;21169;-68
2020/12/18 08:57:33;;;;;;;31.82;18.35;;;;;;;2.29;86.42;100209.72;1745739;81;21334;-67
2020/12/18 09:00:17;;;;;;;35.63;20.85;;;;;;;2.36;86.06;100217.34;1745651;81;21169;-64
2020/12/18 09:02:54;;;;;;;31.27;17.90;;;;;;;2.41;85.93;100207.44;1745932;81;21145;-68
2020/12/18 09:05:29;;;;;;;29.18;16.20;;;;;;;2.44;85.65;100201.27;1746685;81;21170;-63
2020/12/18 09:08:03;;;;;;;30.23;16.73;;;;;;;2.37;84.62;100202.56;1747091;81;21324;-66
2020/12/18 09:10:46;;;;;;;33.65;18.30;;;;;;;2.17;84.83;100197.47;1745013;81;21568;-69
2020/12/18 09:13:30;;;;;;;26.12;14.13;;;;;;;2.20;85.27;100193.84;1743074;81;21553;-68
2020/12/18 09:16:07;;;;;;;25.60;15.48;;;;;;;2.32;85.02;100195.89;1743287;81;21118;-64
2020/12/18 09:18:41;;;;;;;30.75;17.60;;;;;;;2.31;85.08;100194.11;1743271;81;21149;-69
2020/12/18 09:21:15;;;;;;;29.60;15.72;;;;;;;2.48;85.04;100187.94;1743127;81;21161;-64
2020/12/18 09:23:46;;;;;;;25.80;14.20;;;;;;;2.60;84.44;100181.06;1743311;81;21141;-71
2020/12/18 09:26:28;;;;;;;;;;;;;;;2.59;83.83;100176.73;1744253;81;21154;-71
2020/12/18 09:28:57;;;;;;;22.95;11.28;;;;;;;2.47;83.71;100178.52;1743525;81;20290;-72
2020/12/18 09:31:26;;;;;;;25.12;13.65;;;;;;;2.45;82.78;100178.84;1743355;81;21157;-71
2020/12/18 09:33:54;;;;;;;23.55;13.38;;;;;;;2.27;83.05;100169.66;1743134;81;21162;-70
2020/12/18 09:36:24;;;;;;;21.57;11.78;;;;;;;2.28;83.39;100173.55;1743111;81;21130;-67
2020/12/18 09:38:52;;;;;;;27.48;14.28;;;;;;;2.39;83.08;100167.84;1743287;81;21577;-68
2020/12/18 09:41:22;;;;;;;27.67;14.65;;;;;;;2.23;83.25;100172.37;1743359;81;21141;-66
2020/12/18 09:43:51;;;;;;;23.30;14.10;;;;;;;2.19;84.13;100174.26;1743701;81;21554;-64
2020/12/18 09:46:23;;;;;;;24.75;14.50;;;;;;;2.36;84.21;100168.94;1743223;81;21549;-65
2020/12/18 09:48:50;;;;;;;20.00;12.95;;;;;;;2.52;83.80;100161.85;1743297;81;21279;-68
2020/12/18 09:51:19;;;;;;;20.68;13.15;;;;;;;2.65;83.17;100168.22;1724770;82;21158;-66
2020/12/18 09:53:48;;;;;;;21.73;13.75;;;;;;;2.74;82.92;100172.59;1718171;82;21569;-66
2020/12/18 09:56:17;;;;;;;22.95;14.38;;;;;;;2.88;82.59;100175.13;1739522;81;21280;-69
2020/12/18 09:58:45;;;;;;;23.67;12.75;;;;;;;2.89;82.21;100176.88;1744831;81;21174;-71
2020/12/18 10:01:17;;;;;;;26.57;15.45;;;;;;;2.86;81.67;100166.09;1745085;82;21636;-70
2020/12/18 10:03:47;;;;;;;27.50;15.48;;;;;;;2.86;81.79;100162.27;1740152;82;21561;-70
2020/12/18 10:06:16;;;;;;;22.10;14.23;;;;;;;2.94;81.74;100169.11;1745369;81;21569;-69
2020/12/18 10:08:46;;;;;;;26.93;16.57;;;;;;;2.99;81.46;100167.31;1745297;81;21277;-66
2020/12/18 10:11:17;;;;;;;26.23;17.57;;;;;;;3.06;81.44;100168.58;1744961;81;21296;-66
2020/12/18 10:13:43;;;;;;;26.02;16.05;;;;;;;3.10;81.34;100170.50;1744721;82;21316;-70
2020/12/18 10:16:11;;;;;;;27.15;15.98;;;;;;;3.05;81.18;100156.59;1744879;81;21114;-66
2020/12/18 10:18:39;;;;;;;29.72;17.55;;;;;;;2.85;81.20;100167.27;1744899;81;21127;-65
2020/12/18 10:21:07;;;;;;;34.65;18.07;;;;;;;2.71;82.07;100167.31;1745057;81;21549;-69
2020/12/18 10:23:37;;;;;;;31.95;19.77;;;;;;;2.78;82.49;100166.91;1744969;81;21138;-68
2020/12/18 10:26:05;;;;;;;34.83;19.67;;;;;;;2.87;82.56;100159.32;1744925;82;21620;-67
2020/12/18 10:28:33;;;;;;;38.20;21.80;;;;;;;2.99;82.34;100162.62;1744901;81;21131;-70
2020/12/18 10:31:03;;;;;;;38.08;21.50;;;;;;;2.86;82.23;100163.95;1745014;82;21138;-65
2020/12/18 10:33:31;;;;;;;33.53;19.98;;;;;;;2.76;82.50;100160.82;1737731;80;21589;-64
2020/12/18 10:35:59;;;;;;;34.43;18.40;;;;;;;2.79;82.77;100160.13;1698031;83;21170;-65
2020/12/18 10:38:29;;;;;;;35.30;20.75;;;;;;;2.85;82.44;100150.33;1698064;83;21186;-69
2020/12/18 10:40:58;;;;;;;28.38;16.32;;;;;;;2.86;82.56;100149.52;1698212;83;21182;-64
2020/12/18 10:43:28;;;;;;;30.27;17.73;;;;;;;2.91;82.28;100152.36;1698076;83;21186;-72
2020/12/18 10:45:57;;;;;;;37.13;19.30;;;;;;;2.97;81.78;100152.72;1715001;82;21155;-70
2020/12/18 10:48:25;;;;;;;33.88;20.82;;;;;;;3.03;81.77;100151.83;1679545;85;21183;-72
2020/12/18 10:50:53;;;;;;;37.03;20.60;;;;;;;3.05;81.70;100143.84;1687958;85;21179;-69
2020/12/18 10:53:21;;;;;;;36.68;22.62;;;;;;;3.06;81.71;100148.17;1743444;82;21175;-66
2020/12/18 10:55:49;;;;;;;44.67;25.05;;;;;;;3.04;81.57;100147.20;1743638;82;21171;-64
2020/12/18 10:58:17;;;;;;;39.18;22.40;;;;;;;3.04;81.71;100142.09;1679424;85;21140;-67
2020/12/18 11:00:45;;;;;;;37.17;22.30;;;;;;;3.03;81.60;100140.34;1687963;85;21175;-71
2020/12/18 11:03:13;;;;;;;35.17;20.08;;;;;;;3.04;81.68;100134.45;1728908;80;21290;-69
2020/12/18 11:05:41;;;;;;;36.13;20.32;;;;;;;2.94;81.81;100127.04;1728110;82;21286;-66
2020/12/18 11:08:09;;;;;;;37.35;21.40;;;;;;;2.73;82.27;100129.19;1743318;81;21284;-64
2020/12/18 11:10:38;;;;;;;36.95;20.32;;;;;;;2.68;82.71;100133.99;1745074;82;21596;-69
2020/12/18 11:13:06;;;;;;;33.48;19.32;;;;;;;2.69;82.72;100125.55;1744987;81;21329;-66
2020/12/18 11:15:34;;;;;;;36.05;19.23;;;;;;;2.67;82.78;100134.80;1745197;81;21134;-66
2020/12/18 11:18:02;;;;;;;33.90;20.35;;;;;;;2.64;82.78;100137.12;1745283;82;21122;-65
2020/12/18 11:20:30;;;;;;;35.33;20.88;;;;;;;2.65;83.07;100132.54;1747772;81;21131;-66
2020/12/18 11:22:58;;;;;;;28.73;18.35;;;;;;;2.69;82.98;100127.22;1745638;82;21138;-63
2020/12/18 11:25:26;;;;;;;33.75;19.95;;;;;;;2.69;83.04;100119.17;1745142;82;21146;-62
2020/12/18 11:27:53;;;;;;;33.35;19.52;;;;;;;2.61;83.35;100136.95;1745195;81;21771;-61
2020/12/18 11:30:21;;;;;;;31.73;18.65;;;;;;;2.57;83.45;100134.98;1744774;81;21546;-60
2020/12/18 11:32:49;;;;;;;26.57;16.12;;;;;;;2.57;83.47;100129.52;1744200;82;21194;-58
2020/12/18 11:35:17;;;;;;;29.48;18.20;;;;;;;2.54;83.33;100131.86;1744691;81;21178;-61
2020/12/18 11:37:45;;;;;;;30.23;19.05;;;;;;;2.42;84.01;100129.85;1745002;81;21181;-62